Time;durP1;ratioP1;P1;durP2;ratioP2;P2;SDS_P1;SDS_P2;PMS_P1;PMS_P2;Temp;Humidity;BMP_temperature;BMP_pressure;BME280_temperature;BME280_humidity;BME280_pressure;Samples;Min_cycle;Max_cycle;Signal;HPM_P1;HPM_P2
2023/01/05 00:01:51;;;;;;;5.00;0.50;;;;;;;;;;5096762;28;20451;-86
2023/01/05 00:04:17;;;;;;;8.20;1.70;;;;;;;;;;5098046;28;20407;-94
2023/01/05 00:06:43;;;;;;;6.07;0.40;;;;;;;;;;5103868;28;20417;-88
2023/01/05 00:09:13;;;;;;;4.33;0.40;;;;;;;;;;5100251;28;21006;-94
2023/01/05 00:22:49;;;;;;;12.03;1.17;;;;;;;;;;5096295;28;20984;-91
2023/01/05 00:25:17;;;;;;;2.40;0.30;;;;;;;;;;5095615;28;20830;-89
2023/01/05 00:27:44;;;;;;;7.20;0.47;;;;;;;;;;5095813;28;20442;-88
2023/01/05 00:30:11;;;;;;;8.83;0.57;;;;;;;;;;5094338;28;20471;-83
2023/01/05 00:32:37;;;;;;;7.80;1.00;;;;;;;;;;5094001;28;20407;-88
2023/01/05 00:35:03;;;;;;;3.93;0.70;;;;;;;;;;5095743;28;20425;-92
2023/01/05 00:37:30;;;;;;;6.77;1.60;;;;;;;;;;5095717;28;20416;-88
2023/01/05 00:39:56;;;;;;;5.57;0.70;;;;;;;;;;5096686;28;20802;-88
2023/01/05 00:42:25;;;;;;;3.70;0.50;;;;;;;;;;5095537;28;20411;-90
2023/01/05 00:44:51;;;;;;;3.73;0.47;;;;;;;;;;5098818;28;20419;-89
2023/01/05 00:47:17;;;;;;;2.10;0.80;;;;;;;;;;5097514;28;20410;-89
2023/01/05 00:49:43;;;;;;;7.43;1.00;;;;;;;;;;5095397;28;20451;-88
2023/01/05 00:52:09;;;;;;;3.83;0.20;;;;;;;;;;5097944;28;20483;-96
2023/01/05 00:54:35;;;;;;;3.70;0.20;;;;;;;;;;5095257;28;20449;-92
2023/01/05 00:57:01;;;;;;;2.73;0.30;;;;;;;;;;5094251;28;20420;-93
2023/01/05 00:59:27;;;;;;;4.67;0.60;;;;;;;;;;5093925;28;20777;-90
2023/01/05 01:01:53;;;;;;;2.23;0.47;;;;;;;;;;5094727;28;20411;-91
2023/01/05 01:04:20;;;;;;;3.80;0.70;;;;;;;;;;5096879;28;20423;-88
2023/01/05 01:06:46;;;;;;;4.63;0.53;;;;;;;;;;5098084;28;20785;-94
2023/01/05 01:09:13;;;;;;;3.60;0.60;;;;;;;;;;5099549;28;20464;-91
2023/01/05 01:11:39;;;;;;;2.43;0.37;;;;;;;;;;5104888;28;20441;-88
2023/01/05 01:14:06;;;;;;;3.77;0.40;;;;;;;;;;5096532;28;20408;-92
2023/01/05 01:16:32;;;;;;;2.43;0.20;;;;;;;;;;5093841;28;20419;-88
2023/01/05 01:18:58;;;;;;;4.93;0.47;;;;;;;;;;5097021;28;20414;-90
2023/01/05 01:21:24;;;;;;;3.60;0.30;;;;;;;;;;5098146;28;20406;-89
2023/01/05 01:23:50;;;;;;;4.20;0.30;;;;;;;;;;5096815;28;20470;-90
2023/01/05 01:26:16;;;;;;;7.73;0.63;;;;;;;;;;5096681;28;20457;-88
2023/01/05 01:28:42;;;;;;;5.37;0.53;;;;;;;;;;5094914;28;20792;-91
2023/01/05 01:31:08;;;;;;;1.27;0.30;;;;;;;;;;5098219;28;20486;-92
2023/01/05 01:33:34;;;;;;;6.00;0.60;;;;;;;;;;5096252;28;20428;-93
2023/01/05 01:36:03;;;;;;;5.57;0.33;;;;;;;;;;5094615;28;20629;-87
2023/01/05 01:38:29;;;;;;;3.17;1.23;;;;;;;;;;5095494;28;20443;-89
2023/01/05 01:40:55;;;;;;;3.87;0.20;;;;;;;;;;5093116;28;21070;-88
2023/01/05 01:43:41;;;;;;;3.33;0.53;;;;;;;;;;5095714;28;20441;-89
2023/01/05 01:46:07;;;;;;;4.40;0.53;;;;;;;;;;5095781;28;20817;-88
2023/01/05 01:48:33;;;;;;;5.40;1.03;;;;;;;;;;5096283;28;20435;-88
2023/01/05 01:51:00;;;;;;;2.73;0.20;;;;;;;;;;5094471;28;20468;-91
2023/01/05 01:53:29;;;;;;;3.33;0.50;;;;;;;;;;5093107;28;20420;-90
2023/01/05 01:55:57;;;;;;;10.57;0.30;;;;;;;;;;5093391;28;20427;-89
2023/01/05 01:58:25;;;;;;;10.27;0.83;;;;;;;;;;5093909;28;20509;-88
2023/01/05 02:00:51;;;;;;;1.30;0.20;;;;;;;;;;5093370;28;20933;-91
2023/01/05 02:03:17;;;;;;;3.10;0.60;;;;;;;;;;5093028;28;20425;-89
2023/01/05 02:05:43;;;;;;;4.90;1.90;;;;;;;;;;5093602;28;20474;-88
2023/01/05 02:08:11;;;;;;;3.20;0.80;;;;;;;;;;5094455;28;20496;-92
2023/01/05 02:10:54;;;;;;;6.87;0.53;;;;;;;;;;5093288;28;20466;-87
2023/01/05 02:13:40;;;;;;;3.57;0.67;;;;;;;;;;5094039;28;20433;-84
2023/01/05 02:16:12;;;;;;;1.60;0.20;;;;;;;;;;5093693;28;20391;-90
2023/01/05 02:18:54;;;;;;;4.90;0.53;;;;;;;;;;5094041;28;20429;-85
2023/01/05 02:21:22;;;;;;;2.27;0.30;;;;;;;;;;5094495;28;20409;-89
2023/01/05 02:24:07;;;;;;;4.27;0.30;;;;;;;;;;5093658;28;20430;-90
2023/01/05 02:26:52;;;;;;;3.60;0.40;;;;;;;;;;5093056;28;20420;-90
2023/01/05 02:29:18;;;;;;;2.80;0.20;;;;;;;;;;5092806;28;20409;-90
2023/01/05 02:31:48;;;;;;;1.90;0.30;;;;;;;;;;5094489;28;20972;-91
2023/01/05 02:34:22;;;;;;;2.57;0.80;;;;;;;;;;5093489;28;20540;-91
2023/01/05 02:37:04;;;;;;;5.47;0.40;;;;;;;;;;5093637;28;20422;-87
2023/01/05 02:39:49;;;;;;;5.80;0.20;;;;;;;;;;5094569;28;20414;-90
2023/01/05 02:42:19;;;;;;;0.80;0.30;;;;;;;;;;5098617;28;20972;-87
2023/01/05 02:44:45;;;;;;;5.03;1.07;;;;;;;;;;5093938;28;20414;-89
2023/01/05 02:47:29;;;;;;;2.60;0.50;;;;;;;;;;5092220;28;20833;-88
2023/01/05 02:50:28;;;;;;;5.07;0.90;;;;;;;;;;5092785;28;20489;-85
2023/01/05 02:53:03;;;;;;;2.20;0.67;;;;;;;;;;5065500;28;20469;-87
2023/01/05 02:55:34;;;;;;;2.63;0.27;;;;;;;;;;5093855;28;20421;-85
2023/01/05 02:58:24;;;;;;;2.40;0.30;;;;;;;;;;5092234;28;20510;-89
2023/01/05 03:00:56;;;;;;;2.53;0.20;;;;;;;;;;5092508;28;20501;-90
2023/01/05 03:03:25;;;;;;;2.87;0.20;;;;;;;;;;5094330;28;20755;-90
2023/01/05 03:05:54;;;;;;;2.43;0.20;;;;;;;;;;5096370;28;20431;-85
2023/01/05 03:08:23;;;;;;;2.10;0.30;;;;;;;;;;5096120;28;20416;-85
2023/01/05 03:13:46;;;;;;;1.50;0.20;;;;;;;;;;5097662;28;20414;-89
2023/01/05 03:16:41;;;;;;;0.77;0.20;;;;;;;;;;5097508;28;20960;-91
2023/01/05 03:35:49;;;;;;;2.10;0.40;;;;;;;;;;5115375;28;20439;-87
2023/01/05 03:38:24;;;;;;;2.43;0.27;;;;;;;;;;5115795;28;20423;-91
2023/01/05 03:40:54;;;;;;;2.03;0.20;;;;;;;;;;5111638;28;20413;-87
2023/01/05 03:43:23;;;;;;;2.63;0.23;;;;;;;;;;5110048;28;20422;-91
2023/01/05 03:45:54;;;;;;;4.57;0.60;;;;;;;;;;5110918;28;20417;-90
2023/01/05 03:48:20;;;;;;;3.77;0.30;;;;;;;;;;5106757;28;20428;-94
2023/01/05 03:50:46;;;;;;;4.53;0.57;;;;;;;;;;5105049;28;20822;-95
2023/01/05 03:53:12;;;;;;;2.77;0.60;;;;;;;;;;5108864;28;20416;-89
2023/01/05 03:55:39;;;;;;;3.30;0.30;;;;;;;;;;5106778;28;20413;-94
2023/01/05 03:58:05;;;;;;;4.43;0.30;;;;;;;;;;5106823;28;20415;-87
2023/01/05 04:00:31;;;;;;;2.97;0.23;;;;;;;;;;5106119;28;20416;-91
2023/01/05 04:02:57;;;;;;;3.37;0.20;;;;;;;;;;5104623;28;20399;-89
2023/01/05 04:05:23;;;;;;;6.23;0.50;;;;;;;;;;5109999;28;20418;-90
2023/01/05 04:07:49;;;;;;;0.90;0.20;;;;;;;;;;5109516;28;20418;-94
2023/01/05 04:10:15;;;;;;;1.80;0.40;;;;;;;;;;5108905;28;20578;-84
2023/01/05 04:12:41;;;;;;;1.43;0.20;;;;;;;;;;5105143;28;20404;-90
2023/01/05 04:15:08;;;;;;;1.93;0.57;;;;;;;;;;5098845;28;20450;-94
2023/01/05 04:17:33;;;;;;;5.00;0.90;;;;;;;;;;5099509;28;20413;-88
2023/01/05 04:19:59;;;;;;;2.67;0.43;;;;;;;;;;5096819;28;20778;-89
2023/01/05 04:22:25;;;;;;;6.10;0.30;;;;;;;;;;5096946;28;20472;-88
2023/01/05 04:24:51;;;;;;;0.97;0.20;;;;;;;;;;5103278;28;20457;-87
2023/01/05 04:27:17;;;;;;;1.43;0.20;;;;;;;;;;5106867;28;20446;-85
2023/01/05 04:29:43;;;;;;;1.33;0.20;;;;;;;;;;5106469;28;20458;-89
2023/01/05 04:32:18;;;;;;;1.63;0.20;;;;;;;;;;5108751;28;20493;-91
2023/01/05 04:34:44;;;;;;;2.43;0.50;;;;;;;;;;5106414;28;20443;-92
2023/01/05 04:37:10;;;;;;;4.50;0.40;;;;;;;;;;5105373;28;20455;-91
2023/01/05 04:39:36;;;;;;;3.37;0.40;;;;;;;;;;5105518;28;20413;-90
2023/01/05 04:42:02;;;;;;;0.77;0.20;;;;;;;;;;5106446;28;20415;-88
2023/01/05 04:44:28;;;;;;;2.70;0.40;;;;;;;;;;5104212;28;20759;-88
2023/01/05 04:46:54;;;;;;;1.50;0.10;;;;;;;;;;5107430;28;20417;-88
2023/01/05 04:49:20;;;;;;;2.20;0.37;;;;;;;;;;5107183;28;20508;-86
2023/01/05 04:52:00;;;;;;;2.00;0.20;;;;;;;;;;5107043;28;20428;-89
2023/01/05 04:54:28;;;;;;;1.20;0.20;;;;;;;;;;5090804;28;20420;-92
2023/01/05 04:56:54;;;;;;;5.13;0.90;;;;;;;;;;5108141;28;20421;-91
2023/01/05 04:59:20;;;;;;;1.20;0.20;;;;;;;;;;5107690;28;20434;-91
2023/01/05 05:01:46;;;;;;;0.97;0.20;;;;;;;;;;5108261;28;20415;-91
2023/01/05 05:04:12;;;;;;;1.00;0.30;;;;;;;;;;5107963;28;20897;-92
2023/01/05 05:06:38;;;;;;;3.60;0.30;;;;;;;;;;5109511;28;20406;-86
2023/01/05 05:09:04;;;;;;;2.40;0.30;;;;;;;;;;5109944;28;20468;-92
2023/01/05 05:11:30;;;;;;;1.77;0.20;;;;;;;;;;5110632;28;20476;-88
2023/01/05 05:13:56;;;;;;;1.73;0.40;;;;;;;;;;5102342;28;20429;-92
2023/01/05 05:16:24;;;;;;;6.70;0.40;;;;;;;;;;5101361;28;20937;-88
2023/01/05 05:18:50;;;;;;;2.20;0.30;;;;;;;;;;5100085;28;20420;-83
2023/01/05 05:21:16;;;;;;;4.30;0.30;;;;;;;;;;5100211;28;20424;-90
2023/01/05 05:23:42;;;;;;;2.13;0.20;;;;;;;;;;5106851;28;20413;-86
2023/01/05 05:26:08;;;;;;;1.27;0.20;;;;;;;;;;5105411;28;20414;-93
2023/01/05 05:28:34;;;;;;;1.83;0.43;;;;;;;;;;5103995;28;20175;-93
2023/01/05 05:31:00;;;;;;;1.37;0.20;;;;;;;;;;5107706;28;20211;-91
2023/01/05 05:33:26;;;;;;;2.30;0.23;;;;;;;;;;5103105;28;20467;-93
2023/01/05 05:35:52;;;;;;;0.77;0.20;;;;;;;;;;5103931;28;20507;-89
2023/01/05 05:38:18;;;;;;;0.93;0.20;;;;;;;;;;5105466;28;20405;-93
2023/01/05 05:40:44;;;;;;;2.87;0.40;;;;;;;;;;5107710;28;20424;-89
2023/01/05 05:43:10;;;;;;;3.90;0.30;;;;;;;;;;5103527;28;20409;-87
2023/01/05 05:45:36;;;;;;;2.87;0.20;;;;;;;;;;5105442;28;21017;-84
2023/01/05 05:48:01;;;;;;;4.93;0.50;;;;;;;;;;5108973;28;20421;-88
2023/01/05 05:50:27;;;;;;;3.40;0.30;;;;;;;;;;5109450;28;20454;-88
2023/01/05 05:52:53;;;;;;;5.50;0.40;;;;;;;;;;5107713;28;20415;-84
2023/01/05 05:55:19;;;;;;;1.33;0.30;;;;;;;;;;5109400;28;20405;-89
2023/01/05 05:57:45;;;;;;;2.50;0.20;;;;;;;;;;5106697;28;20421;-87
2023/01/05 06:00:11;;;;;;;1.90;0.23;;;;;;;;;;5105561;28;20420;-93
2023/01/05 06:02:57;;;;;;;5.20;0.30;;;;;;;;;;5108234;28;20413;-92
2023/01/05 06:05:30;;;;;;;2.77;0.40;;;;;;;;;;5109814;28;20411;-94
2023/01/05 06:07:57;;;;;;;1.17;0.30;;;;;;;;;;5112634;28;20467;-93
2023/01/05 06:10:43;;;;;;;3.90;0.93;;;;;;;;;;5110937;28;20488;-93
2023/01/05 06:13:41;;;;;;;8.77;0.50;;;;;;;;;;5102794;28;20441;-88
2023/01/05 06:16:47;;;;;;;4.47;0.50;;;;;;;;;;5098222;28;20414;-92
2023/01/05 06:19:34;;;;;;;2.97;0.40;;;;;;;;;;5097232;28;20425;-96
2023/01/05 06:22:46;;;;;;;2.43;0.20;;;;;;;;;;5097459;28;20866;-92
2023/01/05 06:25:32;;;;;;;4.00;0.20;;;;;;;;;;5084449;28;20439;-88
2023/01/05 06:27:58;;;;;;;1.57;0.40;;;;;;;;;;5095273;28;20471;-87
2023/01/05 06:30:24;;;;;;;10.23;1.40;;;;;;;;;;5095649;28;20881;-93
2023/01/05 06:32:50;;;;;;;1.83;0.97;;;;;;;;;;5095403;28;20409;-85
2023/01/05 06:35:16;;;;;;;2.33;0.40;;;;;;;;;;5095457;28;20916;-92
2023/01/05 06:37:44;;;;;;;7.27;0.77;;;;;;;;;;5094172;28;20499;-94
2023/01/05 06:40:32;;;;;;;7.63;0.40;;;;;;;;;;5101026;28;20422;-94
2023/01/05 06:43:12;;;;;;;4.00;0.60;;;;;;;;;;5100811;28;20774;-94
2023/01/05 06:45:38;;;;;;;6.83;0.87;;;;;;;;;;5108905;28;20392;-95
2023/01/05 06:48:04;;;;;;;3.13;0.63;;;;;;;;;;5107344;28;20413;-94
2023/01/05 06:50:32;;;;;;;3.60;0.30;;;;;;;;;;5109753;28;20484;-92
2023/01/05 06:52:58;;;;;;;5.83;0.50;;;;;;;;;;5111207;28;20399;-89
2023/01/05 06:55:24;;;;;;;5.43;0.60;;;;;;;;;;5107604;28;20425;-95
2023/01/05 06:57:50;;;;;;;6.10;0.50;;;;;;;;;;5107795;28;20432;-87
2023/01/05 07:00:16;;;;;;;5.40;0.50;;;;;;;;;;5105002;28;20418;-86
2023/01/05 07:02:42;;;;;;;6.53;0.50;;;;;;;;;;5107138;28;20414;-91
2023/01/05 07:05:08;;;;;;;2.80;0.87;;;;;;;;;;5107977;28;20426;-94
2023/01/05 07:07:34;;;;;;;2.40;0.40;;;;;;;;;;5107925;28;20445;-95
2023/01/05 07:10:00;;;;;;;2.67;0.53;;;;;;;;;;5107618;28;20476;-88
2023/01/05 07:12:27;;;;;;;9.03;0.93;;;;;;;;;;5106084;28;20421;-84
2023/01/05 07:14:53;;;;;;;5.63;0.63;;;;;;;;;;5102272;28;20898;-95
2023/01/05 07:17:43;;;;;;;4.53;0.60;;;;;;;;;;5101175;28;20437;-84
2023/01/05 07:20:12;;;;;;;3.53;0.90;;;;;;;;;;5099723;28;20431;-85
2023/01/05 07:22:38;;;;;;;3.50;0.77;;;;;;;;;;5104410;28;20400;-90
2023/01/05 07:25:04;;;;;;;1.33;0.40;;;;;;;;;;5105901;28;20400;-88
2023/01/05 07:27:32;;;;;;;8.20;0.77;;;;;;;;;;5108186;28;20894;-89
2023/01/05 07:29:58;;;;;;;7.70;1.00;;;;;;;;;;5109880;28;20491;-92
2023/01/05 07:32:23;;;;;;;5.70;1.27;;;;;;;;;;5105813;28;20473;-91
2023/01/05 07:34:49;;;;;;;3.10;0.57;;;;;;;;;;5104855;28;20423;-89
2023/01/05 07:37:15;;;;;;;3.63;0.77;;;;;;;;;;5103202;28;20442;-85
2023/01/05 07:39:41;;;;;;;4.20;1.00;;;;;;;;;;5101331;28;20410;-85
2023/01/05 07:42:07;;;;;;;5.20;0.40;;;;;;;;;;5102707;28;20505;-88
2023/01/05 07:44:33;;;;;;;3.30;0.30;;;;;;;;;;5103966;28;20425;-84
2023/01/05 07:47:00;;;;;;;3.10;0.53;;;;;;;;;;5097610;22;20537;-95
2023/01/05 07:49:28;;;;;;;0.80;0.43;;;;;;;;;;5073794;28;20407;-87
2023/01/05 07:51:56;;;;;;;5.07;0.77;;;;;;;;;;5088318;28;20422;-93
2023/01/05 07:54:22;;;;;;;2.07;0.30;;;;;;;;;;5092415;28;20414;-93
2023/01/05 07:56:48;;;;;;;4.03;0.63;;;;;;;;;;5089345;28;20420;-94
2023/01/05 07:59:14;;;;;;;7.13;1.13;;;;;;;;;;5089586;28;20404;-92
2023/01/05 08:01:40;;;;;;;4.43;0.40;;;;;;;;;;5087255;22;20491;-88
2023/01/05 08:04:12;;;;;;;3.67;0.37;;;;;;;;;;5055601;28;20436;-95
2023/01/05 08:06:38;;;;;;;1.60;0.40;;;;;;;;;;5067585;28;20427;-93
2023/01/05 08:10:27;;;;;;;11.80;1.17;;;;;;;;;;5063282;28;20416;-95
2023/01/05 08:11:49;;;;;;;1.70;0.20;;;;;;;;;;5043329;28;20456;-84
2023/01/05 08:14:15;;;;;;;4.93;0.40;;;;;;;;;;5061962;28;20405;-86
2023/01/05 08:16:41;;;;;;;7.50;0.67;;;;;;;;;;5055162;28;20415;-88
2023/01/05 08:19:08;;;;;;;4.07;0.73;;;;;;;;;;5067456;28;20425;-84
2023/01/05 08:21:37;;;;;;;4.90;0.40;;;;;;;;;;5064037;28;20432;-85
2023/01/05 08:24:03;;;;;;;7.93;1.07;;;;;;;;;;5064003;28;20548;-85
2023/01/05 08:26:29;;;;;;;7.00;0.97;;;;;;;;;;5047879;28;20415;-94
2023/01/05 08:28:58;;;;;;;5.90;1.27;;;;;;;;;;5061310;28;20914;-95
2023/01/05 08:31:25;;;;;;;7.23;0.47;;;;;;;;;;5047892;28;20473;-85
2023/01/05 08:33:56;;;;;;;4.00;1.27;;;;;;;;;;5062819;28;20433;-95
2023/01/05 08:36:22;;;;;;;6.77;0.50;;;;;;;;;;5053511;28;20427;-87
2023/01/05 08:38:50;;;;;;;5.50;0.97;;;;;;;;;;5048093;28;20417;-84
2023/01/05 08:41:17;;;;;;;6.13;0.60;;;;;;;;;;5061203;28;20184;-84
2023/01/05 08:43:43;;;;;;;8.30;1.00;;;;;;;;;;5045711;28;20405;-91
2023/01/05 08:46:09;;;;;;;6.70;0.50;;;;;;;;;;5043817;28;20415;-91
2023/01/05 08:48:35;;;;;;;5.87;0.67;;;;;;;;;;5059740;28;20422;-96
2023/01/05 08:51:06;;;;;;;7.10;1.50;;;;;;;;;;5063632;28;20853;-92
2023/01/05 08:53:32;;;;;;;7.17;0.90;;;;;;;;;;5067485;28;20418;-91
2023/01/05 08:55:58;;;;;;;7.73;1.77;;;;;;;;;;5067492;28;20425;-92
2023/01/05 08:58:24;;;;;;;4.27;0.90;;;;;;;;;;5048885;28;20401;-96
2023/01/05 09:00:52;;;;;;;4.53;0.30;;;;;;;;;;5064808;28;20421;-96
2023/01/05 09:03:21;;;;;;;6.97;0.30;;;;;;;;;;5050926;28;20449;-84
2023/01/05 09:05:52;;;;;;;9.10;1.17;;;;;;;;;;5050692;28;20406;-91
2023/01/05 09:08:24;;;;;;;5.23;0.63;;;;;;;;;;5068846;28;20502;-88
2023/01/05 09:10:50;;;;;;;9.87;0.93;;;;;;;;;;5063302;28;20454;-85
2023/01/05 09:13:15;;;;;;;8.47;0.67;;;;;;;;;;5069943;28;20523;-85
2023/01/05 09:15:41;;;;;;;12.07;1.10;;;;;;;;;;5070081;28;20428;-86
2023/01/05 09:18:07;;;;;;;7.30;1.27;;;;;;;;;;5049898;28;20507;-95
2023/01/05 09:20:33;;;;;;;6.00;0.50;;;;;;;;;;5062901;28;20416;-93
2023/01/05 09:22:59;;;;;;;13.40;1.13;;;;;;;;;;5063392;28;20419;-94
2023/01/05 09:25:25;;;;;;;2.90;0.50;;;;;;;;;;5052923;28;20416;-92
2023/01/05 09:27:51;;;;;;;6.93;0.53;;;;;;;;;;5053706;28;20430;-83
2023/01/05 09:30:17;;;;;;;4.33;1.37;;;;;;;;;;5049357;28;20465;-84
2023/01/05 09:32:43;;;;;;;4.70;1.07;;;;;;;;;;5050200;28;20394;-85
2023/01/05 09:35:09;;;;;;;7.47;0.90;;;;;;;;;;5065299;28;20461;-82
2023/01/05 09:40:01;;;;;;;2.30;0.30;;;;;;;;;;5089500;22;20464;-87
2023/01/05 09:42:30;;;;;;;4.70;0.63;;;;;;;;;;5086105;22;20217;-83
2023/01/05 09:44:59;;;;;;;4.13;0.47;;;;;;;;;;5055224;28;20499;-85
2023/01/05 09:47:31;;;;;;;1.37;0.30;;;;;;;;;;5090724;22;20550;-85
2023/01/05 09:49:57;;;;;;;2.67;0.57;;;;;;;;;;5083053;22;20499;-84
2023/01/05 09:52:24;;;;;;;8.07;0.67;;;;;;;;;;5112897;22;20486;-83
2023/01/05 09:54:50;;;;;;;4.07;0.70;;;;;;;;;;5114655;27;20473;-84
2023/01/05 09:57:37;;;;;;;3.00;0.20;;;;;;;;;;5132311;27;21052;-89
2023/01/05 10:00:05;;;;;;;3.70;0.30;;;;;;;;;;5101570;28;20423;-85
2023/01/05 10:02:34;;;;;;;1.80;0.50;;;;;;;;;;5118018;28;20427;-92
2023/01/05 10:05:00;;;;;;;2.97;0.33;;;;;;;;;;5102465;28;20429;-93
2023/01/05 10:07:30;;;;;;;5.43;0.73;;;;;;;;;;5115085;28;20499;-89
2023/01/05 10:10:00;;;;;;;11.47;1.10;;;;;;;;;;5120413;28;20506;-88
2023/01/05 10:15:17;;;;;;;6.40;0.73;;;;;;;;;;5127334;28;20414;-89
2023/01/05 10:17:43;;;;;;;4.33;0.70;;;;;;;;;;5119654;28;20750;-86
2023/01/05 10:20:35;;;;;;;5.37;0.70;;;;;;;;;;5115694;28;20499;-87
2023/01/05 10:23:10;;;;;;;8.70;0.33;;;;;;;;;;5123742;28;20400;-89
2023/01/05 10:26:01;;;;;;;4.10;1.07;;;;;;;;;;5118249;28;20431;-84
2023/01/05 10:28:46;;;;;;;3.53;0.60;;;;;;;;;;5134348;28;20927;-84
2023/01/05 10:31:18;;;;;;;6.13;1.63;;;;;;;;;;5134109;28;20453;-84
2023/01/05 10:33:51;;;;;;;8.67;0.90;;;;;;;;;;5116023;28;20461;-89
2023/01/05 10:36:24;;;;;;;6.20;0.67;;;;;;;;;;5135494;28;20421;-85
2023/01/05 10:38:55;;;;;;;6.03;1.07;;;;;;;;;;5129257;28;20386;-86
2023/01/05 10:41:38;;;;;;;4.00;1.00;;;;;;;;;;5128790;28;20431;-86
2023/01/05 10:44:23;;;;;;;6.93;0.67;;;;;;;;;;5124455;28;20406;-90
2023/01/05 10:46:49;;;;;;;4.63;0.37;;;;;;;;;;5134056;28;20414;-89
2023/01/05 10:49:26;;;;;;;6.40;0.60;;;;;;;;;;5134989;28;20432;-91
2023/01/05 10:51:55;;;;;;;4.97;0.73;;;;;;;;;;5136232;28;20476;-86
2023/01/05 10:54:42;;;;;;;9.00;0.60;;;;;;;;;;5114623;28;20421;-92
2023/01/05 10:57:26;;;;;;;4.77;0.70;;;;;;;;;;5113877;28;20411;-89
2023/01/05 11:00:15;;;;;;;2.67;0.60;;;;;;;;;;5131298;28;20417;-90
2023/01/05 11:03:03;;;;;;;5.77;1.30;;;;;;;;;;5123148;28;20465;-92
2023/01/05 11:05:37;;;;;;;5.90;0.97;;;;;;;;;;5117042;28;20481;-89
2023/01/05 11:08:13;;;;;;;4.60;0.70;;;;;;;;;;5126605;28;20452;-91
2023/01/05 11:10:49;;;;;;;5.53;1.07;;;;;;;;;;5094487;28;20486;-90
2023/01/05 11:13:18;;;;;;;5.23;0.67;;;;;;;;;;5084202;28;20418;-91
2023/01/05 11:15:54;;;;;;;5.70;0.63;;;;;;;;;;5076102;28;20907;-93
2023/01/05 11:18:42;;;;;;;5.77;0.43;;;;;;;;;;5093791;28;20437;-91
2023/01/05 11:21:35;;;;;;;8.10;1.07;;;;;;;;;;5095965;28;20460;-93
2023/01/05 11:24:25;;;;;;;4.23;0.57;;;;;;;;;;5072157;28;20438;-89
2023/01/05 11:26:57;;;;;;;6.53;0.77;;;;;;;;;;5090163;28;20421;-91
2023/01/05 11:29:24;;;;;;;5.87;0.30;;;;;;;;;;5101523;28;20411;-87
2023/01/05 11:31:53;;;;;;;3.07;0.40;;;;;;;;;;5103011;28;21034;-93
2023/01/05 11:34:19;;;;;;;6.80;0.60;;;;;;;;;;5117361;28;20414;-93
2023/01/05 11:37:11;;;;;;;3.10;0.43;;;;;;;;;;5106091;28;20494;-86
2023/01/05 11:39:47;;;;;;;7.33;0.77;;;;;;;;;;5106871;28;20413;-95
2023/01/05 11:42:18;;;;;;;3.27;0.40;;;;;;;;;;5127930;28;20409;-90
2023/01/05 11:44:50;;;;;;;7.50;0.70;;;;;;;;;;5107442;28;20406;-95
2023/01/05 11:47:22;;;;;;;6.17;0.73;;;;;;;;;;5092117;28;20421;-94
2023/01/05 11:49:48;;;;;;;5.93;0.70;;;;;;;;;;5126981;28;20410;-96
2023/01/05 11:52:25;;;;;;;6.00;1.53;;;;;;;;;;5097012;28;20846;-95
2023/01/05 11:54:55;;;;;;;8.90;0.40;;;;;;;;;;5114341;28;20925;-94
2023/01/05 11:57:22;;;;;;;2.80;0.40;;;;;;;;;;5113582;28;20929;-94
2023/01/05 11:59:50;;;;;;;7.57;0.77;;;;;;;;;;5090021;28;20436;-93
2023/01/05 12:02:38;;;;;;;4.43;0.57;;;;;;;;;;5070144;28;20454;-93
2023/01/05 12:05:13;;;;;;;10.43;1.10;;;;;;;;;;5084639;28;20429;-92
2023/01/05 12:07:43;;;;;;;3.40;0.77;;;;;;;;;;5109060;28;20414;-85
2023/01/05 12:10:12;;;;;;;7.60;1.13;;;;;;;;;;5089212;28;20527;-85
2023/01/05 12:12:47;;;;;;;7.73;0.93;;;;;;;;;;5085455;28;20407;-95
2023/01/05 12:15:39;;;;;;;7.37;1.03;;;;;;;;;;5088292;28;20406;-86
2023/01/05 12:18:24;;;;;;;9.00;0.60;;;;;;;;;;5103400;28;20983;-95
2023/01/05 12:21:02;;;;;;;2.63;0.30;;;;;;;;;;5089776;28;20485;-87
2023/01/05 12:23:39;;;;;;;4.33;0.97;;;;;;;;;;5090681;28;20479;-91
2023/01/05 12:26:08;;;;;;;6.70;2.03;;;;;;;;;;5105990;28;21094;-93
2023/01/05 12:28:42;;;;;;;7.47;0.87;;;;;;;;;;5112556;28;20407;-91
2023/01/05 12:31:27;;;;;;;9.27;0.67;;;;;;;;;;5112082;28;20493;-96
2023/01/05 12:34:02;;;;;;;5.83;1.30;;;;;;;;;;5090095;28;20440;-86
2023/01/05 12:36:55;;;;;;;7.60;1.30;;;;;;;;;;5086713;28;20735;-86
2023/01/05 12:39:21;;;;;;;4.30;0.30;;;;;;;;;;5092191;28;20452;-88
2023/01/05 12:42:26;;;;;;;6.97;0.57;;;;;;;;;;5097612;28;20395;-86
2023/01/05 12:45:05;;;;;;;10.83;0.87;;;;;;;;;;5036452;28;20426;-90
2023/01/05 12:47:35;;;;;;;5.47;0.30;;;;;;;;;;5049940;28;20499;-93
2023/01/05 12:50:14;;;;;;;3.97;0.30;;;;;;;;;;5102408;27;20509;-90
2023/01/05 12:52:43;;;;;;;2.57;0.30;;;;;;;;;;5174069;22;20465;-86
2023/01/05 12:55:12;;;;;;;2.77;0.63;;;;;;;;;;5076606;28;20426;-90
2023/01/05 12:57:41;;;;;;;3.70;0.30;;;;;;;;;;5078131;28;20438;-86
2023/01/05 13:00:12;;;;;;;2.10;0.30;;;;;;;;;;5093048;28;20882;-85
2023/01/05 13:02:40;;;;;;;1.80;0.40;;;;;;;;;;5069849;28;20423;-85
2023/01/05 13:05:27;;;;;;;6.07;0.87;;;;;;;;;;5065952;28;20400;-85
2023/01/05 13:08:14;;;;;;;7.47;0.80;;;;;;;;;;5062031;28;20417;-90
2023/01/05 13:10:50;;;;;;;4.27;0.20;;;;;;;;;;5063599;28;20509;-89
2023/01/05 13:13:18;;;;;;;2.30;0.40;;;;;;;;;;5105553;23;20474;-91
2023/01/05 13:16:06;;;;;;;3.20;0.83;;;;;;;;;;5131462;27;20426;-85
2023/01/05 13:18:35;;;;;;;4.60;0.30;;;;;;;;;;5150658;27;20392;-94
2023/01/05 13:21:02;;;;;;;1.90;0.30;;;;;;;;;;5160515;27;20413;-86
2023/01/05 13:23:30;;;;;;;1.30;0.40;;;;;;;;;;5175182;27;20415;-92
2023/01/05 13:25:58;;;;;;;3.40;0.57;;;;;;;;;;5176947;27;20421;-85
2023/01/05 13:28:25;;;;;;;4.37;0.30;;;;;;;;;;5157802;27;20467;-86
2023/01/05 13:31:04;;;;;;;2.53;0.80;;;;;;;;;;5176220;27;20476;-89
2023/01/05 13:33:49;;;;;;;5.53;0.73;;;;;;;;;;5125923;27;20513;-82
2023/01/05 13:36:22;;;;;;;1.80;0.30;;;;;;;;;;5149670;27;20408;-82
2023/01/05 13:39:07;;;;;;;2.20;0.53;;;;;;;;;;5131353;27;20574;-84
2023/01/05 13:41:36;;;;;;;1.73;0.30;;;;;;;;;;5152849;27;20393;-83
2023/01/05 13:44:19;;;;;;;3.30;0.30;;;;;;;;;;5131475;27;20501;-84
2023/01/05 13:47:03;;;;;;;2.00;0.87;;;;;;;;;;5129556;27;20401;-83
2023/01/05 13:49:42;;;;;;;2.40;0.40;;;;;;;;;;5151231;27;20393;-84
2023/01/05 13:52:09;;;;;;;2.70;0.40;;;;;;;;;;5152970;27;20458;-84
2023/01/05 13:54:43;;;;;;;3.37;0.60;;;;;;;;;;5150629;27;20423;-84
2023/01/05 13:57:21;;;;;;;1.53;0.33;;;;;;;;;;5140294;27;20455;-84
2023/01/05 13:59:53;;;;;;;3.23;0.23;;;;;;;;;;5121386;27;20432;-83
2023/01/05 14:02:36;;;;;;;1.37;0.23;;;;;;;;;;5146371;27;20430;-83
2023/01/05 14:05:14;;;;;;;1.97;0.20;;;;;;;;;;5136404;27;20412;-83
2023/01/05 14:07:40;;;;;;;2.63;0.20;;;;;;;;;;5120658;27;20402;-85
2023/01/05 14:10:33;;;;;;;2.43;1.63;;;;;;;;;;5137165;27;20469;-88
2023/01/05 14:13:02;;;;;;;2.60;0.43;;;;;;;;;;5151762;27;20471;-84
2023/01/05 14:15:36;;;;;;;0.73;0.20;;;;;;;;;;5153910;27;20380;-86
2023/01/05 14:18:06;;;;;;;2.40;0.27;;;;;;;;;;5137730;27;20424;-85
2023/01/05 14:20:33;;;;;;;1.60;0.20;;;;;;;;;;5150816;27;20424;-84
2023/01/05 14:23:04;;;;;;;4.00;0.20;;;;;;;;;;5155012;27;20421;-84
2023/01/05 14:25:47;;;;;;;6.77;0.20;;;;;;;;;;5135998;28;20425;-84
2023/01/05 14:28:35;;;;;;;1.00;0.30;;;;;;;;;;5138587;27;20456;-83
2023/01/05 14:31:27;;;;;;;2.50;1.07;;;;;;;;;;5137243;28;20468;-83
2023/01/05 14:33:58;;;;;;;3.90;0.30;;;;;;;;;;5133264;28;20415;-83
2023/01/05 14:36:35;;;;;;;4.77;0.10;;;;;;;;;;5135006;28;20432;-82
2023/01/05 14:39:03;;;;;;;6.30;0.33;;;;;;;;;;5134035;28;20447;-83
2023/01/05 14:41:30;;;;;;;6.13;0.60;;;;;;;;;;5153839;28;20410;-84
2023/01/05 14:44:02;;;;;;;3.23;0.47;;;;;;;;;;5132845;28;20434;-85
2023/01/05 14:46:41;;;;;;;5.57;0.83;;;;;;;;;;5155056;28;20398;-83
2023/01/05 14:49:10;;;;;;;5.90;0.40;;;;;;;;;;5118619;28;20511;-84
2023/01/05 14:51:38;;;;;;;4.67;0.90;;;;;;;;;;5135800;28;20463;-85
2023/01/05 14:54:08;;;;;;;2.77;0.20;;;;;;;;;;5131773;28;20458;-89
2023/01/05 14:56:36;;;;;;;6.00;1.13;;;;;;;;;;5129639;28;20425;-85
2023/01/05 14:59:12;;;;;;;3.53;0.70;;;;;;;;;;5148723;27;20416;-93
2023/01/05 15:01:45;;;;;;;8.73;0.73;;;;;;;;;;5133659;27;20934;-93
2023/01/05 15:04:14;;;;;;;2.80;0.37;;;;;;;;;;5134087;27;20909;-96
2023/01/05 15:06:40;;;;;;;2.70;0.40;;;;;;;;;;5137153;27;20413;-91
2023/01/05 15:09:25;;;;;;;6.83;0.70;;;;;;;;;;5132368;27;20457;-84
2023/01/05 15:11:51;;;;;;;3.20;0.63;;;;;;;;;;5132163;27;20470;-91
2023/01/05 15:14:36;;;;;;;3.97;0.30;;;;;;;;;;5130927;28;20530;-94
2023/01/05 15:17:21;;;;;;;2.73;1.13;;;;;;;;;;5136111;27;20179;-92
2023/01/05 15:20:05;;;;;;;13.67;1.60;;;;;;;;;;5149886;27;20771;-95
2023/01/05 15:22:50;;;;;;;2.80;0.27;;;;;;;;;;5145935;27;20440;-93
2023/01/05 15:25:24;;;;;;;5.30;0.70;;;;;;;;;;5150394;27;20414;-94
2023/01/05 15:27:56;;;;;;;4.03;0.30;;;;;;;;;;5150631;27;20410;-87
2023/01/05 15:30:38;;;;;;;6.07;0.47;;;;;;;;;;5141668;27;20508;-90
2023/01/05 15:33:12;;;;;;;6.33;0.73;;;;;;;;;;5150700;27;20412;-92
2023/01/05 15:35:48;;;;;;;2.97;0.70;;;;;;;;;;5151764;27;20405;-93
2023/01/05 15:38:25;;;;;;;5.73;0.73;;;;;;;;;;5132533;27;20438;-86
2023/01/05 15:40:57;;;;;;;3.10;0.30;;;;;;;;;;5131694;27;20480;-93
2023/01/05 15:43:23;;;;;;;2.47;0.33;;;;;;;;;;5150903;27;20393;-93
2023/01/05 15:45:52;;;;;;;5.23;0.87;;;;;;;;;;5133487;27;20910;-92